sensor_id;sensor_type;location;lat;lon;timestamp;temperature;humidity
11599;DHT22;5855;48.840;9.188;2023-03-23T00:01:26;13.70;99.90
11599;DHT22;5855;48.840;9.188;2023-03-23T00:03:56;13.80;99.90
11599;DHT22;5855;48.840;9.188;2023-03-23T00:06:26;13.80;99.90
11599;DHT22;5855;48.840;9.188;2023-03-23T00:08:54;14.00;99.90
11599;DHT22;5855;48.840;9.188;2023-03-23T00:11:26;14.10;99.90
11599;DHT22;5855;48.840;9.188;2023-03-23T00:13:55;14.20;99.90
11599;DHT22;5855;48.840;9.188;2023-03-23T00:16:24;14.20;99.90
11599;DHT22;5855;48.840;9.188;2023-03-23T00:18:58;14.30;99.90
11599;DHT22;5855;48.840;9.188;2023-03-23T00:21:27;14.30;99.90
11599;DHT22;5855;48.840;9.188;2023-03-23T00:24:02;14.40;99.90
11599;DHT22;5855;48.840;9.188;2023-03-23T00:26:29;14.30;99.90
11599;DHT22;5855;48.840;9.188;2023-03-23T00:28:59;14.30;99.90
11599;DHT22;5855;48.840;9.188;2023-03-23T00:31:27;14.30;99.90
11599;DHT22;5855;48.840;9.188;2023-03-23T00:33:59;14.40;99.90
11599;DHT22;5855;48.840;9.188;2023-03-23T00:36:30;14.40;99.90
11599;DHT22;5855;48.840;9.188;2023-03-23T00:38:57;14.50;99.90
11599;DHT22;5855;48.840;9.188;2023-03-23T00:41:25;14.50;99.90
11599;DHT22;5855;48.840;9.188;2023-03-23T00:43:54;14.40;99.90
11599;DHT22;5855;48.840;9.188;2023-03-23T00:46:21;14.40;99.90
11599;DHT22;5855;48.840;9.188;2023-03-23T00:48:48;14.50;99.90
11599;DHT22;5855;48.840;9.188;2023-03-23T00:51:17;14.40;99.90
11599;DHT22;5855;48.840;9.188;2023-03-23T00:53:45;14.50;99.90
11599;DHT22;5855;48.840;9.188;2023-03-23T00:56:12;14.40;99.90
11599;DHT22;5855;48.840;9.188;2023-03-23T00:58:40;14.50;99.90
11599;DHT22;5855;48.840;9.188;2023-03-23T01:01:07;14.50;99.90
11599;DHT22;5855;48.840;9.188;2023-03-23T01:03:35;14.40;99.90
11599;DHT22;5855;48.840;9.188;2023-03-23T01:06:07;14.40;99.90
11599;DHT22;5855;48.840;9.188;2023-03-23T01:08:39;14.50;99.90
11599;DHT22;5855;48.840;9.188;2023-03-23T01:11:13;14.60;99.90
11599;DHT22;5855;48.840;9.188;2023-03-23T01:13:40;14.60;99.90
11599;DHT22;5855;48.840;9.188;2023-03-23T01:16:07;14.50;99.90
11599;DHT22;5855;48.840;9.188;2023-03-23T01:18:34;14.60;99.90
11599;DHT22;5855;48.840;9.188;2023-03-23T01:21:04;14.60;99.90
11599;DHT22;5855;48.840;9.188;2023-03-23T01:23:32;14.60;99.90
11599;DHT22;5855;48.840;9.188;2023-03-23T01:26:04;14.60;99.90
11599;DHT22;5855;48.840;9.188;2023-03-23T01:28:31;14.60;99.90
11599;DHT22;5855;48.840;9.188;2023-03-23T01:31:02;14.60;99.90
11599;DHT22;5855;48.840;9.188;2023-03-23T01:33:29;14.50;99.90
11599;DHT22;5855;48.840;9.188;2023-03-23T01:35:57;14.50;99.90
11599;DHT22;5855;48.840;9.188;2023-03-23T01:38:24;14.50;99.90
11599;DHT22;5855;48.840;9.188;2023-03-23T01:40:51;14.50;99.90
11599;DHT22;5855;48.840;9.188;2023-03-23T01:43:19;14.50;99.90
11599;DHT22;5855;48.840;9.188;2023-03-23T01:45:46;14.50;99.90
11599;DHT22;5855;48.840;9.188;2023-03-23T01:48:16;14.50;99.90
11599;DHT22;5855;48.840;9.188;2023-03-23T01:50:50;14.50;99.90
11599;DHT22;5855;48.840;9.188;2023-03-23T01:53:19;14.40;99.90
11599;DHT22;5855;48.840;9.188;2023-03-23T01:55:47;14.40;99.90
11599;DHT22;5855;48.840;9.188;2023-03-23T01:58:19;14.40;99.90
11599;DHT22;5855;48.840;9.188;2023-03-23T02:00:47;14.30;99.90
11599;DHT22;5855;48.840;9.188;2023-03-23T02:03:15;14.30;99.90
11599;DHT22;5855;48.840;9.188;2023-03-23T02:05:43;14.20;99.90
11599;DHT22;5855;48.840;9.188;2023-03-23T02:08:11;14.30;99.90
11599;DHT22;5855;48.840;9.188;2023-03-23T02:10:41;14.30;99.90
11599;DHT22;5855;48.840;9.188;2023-03-23T02:13:09;14.20;99.90
11599;DHT22;5855;48.840;9.188;2023-03-23T02:15:47;14.20;99.90
11599;DHT22;5855;48.840;9.188;2023-03-23T02:18:36;14.20;99.90
11599;DHT22;5855;48.840;9.188;2023-03-23T02:27:01;14.10;99.90
11599;DHT22;5855;48.840;9.188;2023-03-23T02:29:54;14.10;99.90
11599;DHT22;5855;48.840;9.188;2023-03-23T02:32:47;14.20;99.90
11599;DHT22;5855;48.840;9.188;2023-03-23T02:35:23;14.20;99.90
11599;DHT22;5855;48.840;9.188;2023-03-23T02:37:52;14.20;99.90
11599;DHT22;5855;48.840;9.188;2023-03-23T02:40:25;14.30;99.90
11599;DHT22;5855;48.840;9.188;2023-03-23T02:42:56;14.30;99.90
11599;DHT22;5855;48.840;9.188;2023-03-23T02:45:27;14.30;99.90
11599;DHT22;5855;48.840;9.188;2023-03-23T02:47:56;14.20;99.90
11599;DHT22;5855;48.840;9.188;2023-03-23T02:50:27;14.20;99.90
11599;DHT22;5855;48.840;9.188;2023-03-23T02:52:55;14.10;99.90
11599;DHT22;5855;48.840;9.188;2023-03-23T02:55:25;14.20;99.90
11599;DHT22;5855;48.840;9.188;2023-03-23T02:57:54;14.10;99.90
11599;DHT22;5855;48.840;9.188;2023-03-23T03:00:23;14.10;99.90
11599;DHT22;5855;48.840;9.188;2023-03-23T03:02:52;14.00;99.90
11599;DHT22;5855;48.840;9.188;2023-03-23T03:05:28;14.00;99.90
11599;DHT22;5855;48.840;9.188;2023-03-23T03:08:03;14.00;99.90
11599;DHT22;5855;48.840;9.188;2023-03-23T03:10:37;14.10;99.90
11599;DHT22;5855;48.840;9.188;2023-03-23T03:13:11;14.00;99.90
11599;DHT22;5855;48.840;9.188;2023-03-23T03:15:44;14.00;99.90
11599;DHT22;5855;48.840;9.188;2023-03-23T03:18:18;14.00;99.90
11599;DHT22;5855;48.840;9.188;2023-03-23T03:20:51;14.00;99.90
11599;DHT22;5855;48.840;9.188;2023-03-23T03:23:22;13.90;99.90
11599;DHT22;5855;48.840;9.188;2023-03-23T03:25:49;13.90;99.90
11599;DHT22;5855;48.840;9.188;2023-03-23T03:28:17;13.90;99.90
11599;DHT22;5855;48.840;9.188;2023-03-23T03:30:50;13.90;99.90
11599;DHT22;5855;48.840;9.188;2023-03-23T03:33:19;13.90;99.90
11599;DHT22;5855;48.840;9.188;2023-03-23T03:35:53;13.90;99.90
11599;DHT22;5855;48.840;9.188;2023-03-23T03:38:21;13.90;99.90
11599;DHT22;5855;48.840;9.188;2023-03-23T03:40:49;13.90;99.90
11599;DHT22;5855;48.840;9.188;2023-03-23T03:43:16;13.90;99.90
11599;DHT22;5855;48.840;9.188;2023-03-23T03:45:44;14.00;99.90
11599;DHT22;5855;48.840;9.188;2023-03-23T03:48:11;14.10;99.90
11599;DHT22;5855;48.840;9.188;2023-03-23T03:50:37;14.00;99.90
11599;DHT22;5855;48.840;9.188;2023-03-23T03:53:06;14.00;99.90
11599;DHT22;5855;48.840;9.188;2023-03-23T03:55:33;14.00;99.90
11599;DHT22;5855;48.840;9.188;2023-03-23T03:58:01;14.10;99.90
11599;DHT22;5855;48.840;9.188;2023-03-23T04:00:28;14.20;99.90
11599;DHT22;5855;48.840;9.188;2023-03-23T04:02:55;14.20;99.90
11599;DHT22;5855;48.840;9.188;2023-03-23T04:05:22;14.20;99.90
11599;DHT22;5855;48.840;9.188;2023-03-23T04:07:50;14.20;99.90
11599;DHT22;5855;48.840;9.188;2023-03-23T04:10:20;14.20;99.90
11599;DHT22;5855;48.840;9.188;2023-03-23T04:12:48;14.30;99.90
11599;DHT22;5855;48.840;9.188;2023-03-23T04:15:15;14.40;99.90
11599;DHT22;5855;48.840;9.188;2023-03-23T04:17:42;14.40;99.90
11599;DHT22;5855;48.840;9.188;2023-03-23T04:20:11;14.40;99.90
11599;DHT22;5855;48.840;9.188;2023-03-23T04:22:43;14.30;99.90
11599;DHT22;5855;48.840;9.188;2023-03-23T04:25:11;14.30;99.90
11599;DHT22;5855;48.840;9.188;2023-03-23T04:27:41;14.30;99.90
11599;DHT22;5855;48.840;9.188;2023-03-23T04:30:12;14.30;99.90
11599;DHT22;5855;48.840;9.188;2023-03-23T04:32:40;14.30;99.90
11599;DHT22;5855;48.840;9.188;2023-03-23T04:35:09;14.30;99.90
11599;DHT22;5855;48.840;9.188;2023-03-23T04:37:38;14.40;99.90
11599;DHT22;5855;48.840;9.188;2023-03-23T04:40:07;14.50;99.90
11599;DHT22;5855;48.840;9.188;2023-03-23T04:42:38;14.50;99.90
11599;DHT22;5855;48.840;9.188;2023-03-23T04:45:08;14.50;99.90
11599;DHT22;5855;48.840;9.188;2023-03-23T04:47:36;14.50;99.90
11599;DHT22;5855;48.840;9.188;2023-03-23T04:50:07;14.50;99.90
11599;DHT22;5855;48.840;9.188;2023-03-23T04:52:35;14.50;99.90
11599;DHT22;5855;48.840;9.188;2023-03-23T04:55:04;14.50;99.90
11599;DHT22;5855;48.840;9.188;2023-03-23T04:57:32;14.40;99.90
11599;DHT22;5855;48.840;9.188;2023-03-23T05:00:00;14.30;99.90
11599;DHT22;5855;48.840;9.188;2023-03-23T05:02:32;14.20;99.90
11599;DHT22;5855;48.840;9.188;2023-03-23T05:04:59;14.20;99.90
11599;DHT22;5855;48.840;9.188;2023-03-23T05:07:26;14.10;99.90
11599;DHT22;5855;48.840;9.188;2023-03-23T05:09:53;14.00;99.90
11599;DHT22;5855;48.840;9.188;2023-03-23T05:12:20;14.00;99.90
11599;DHT22;5855;48.840;9.188;2023-03-23T05:14:47;13.90;99.90
11599;DHT22;5855;48.840;9.188;2023-03-23T05:17:15;14.00;99.90
11599;DHT22;5855;48.840;9.188;2023-03-23T05:19:44;14.00;99.90
11599;DHT22;5855;48.840;9.188;2023-03-23T05:22:13;14.10;99.90
11599;DHT22;5855;48.840;9.188;2023-03-23T05:24:43;14.20;99.90
11599;DHT22;5855;48.840;9.188;2023-03-23T05:27:10;14.30;99.90
11599;DHT22;5855;48.840;9.188;2023-03-23T05:29:37;14.50;99.90
11599;DHT22;5855;48.840;9.188;2023-03-23T05:32:07;14.50;99.90
11599;DHT22;5855;48.840;9.188;2023-03-23T05:34:34;14.60;99.90
11599;DHT22;5855;48.840;9.188;2023-03-23T05:37:04;14.60;99.90
11599;DHT22;5855;48.840;9.188;2023-03-23T05:39:31;14.70;99.90
11599;DHT22;5855;48.840;9.188;2023-03-23T05:42:00;14.80;99.90
11599;DHT22;5855;48.840;9.188;2023-03-23T05:44:27;14.80;99.90
11599;DHT22;5855;48.840;9.188;2023-03-23T05:46:55;14.80;99.90
11599;DHT22;5855;48.840;9.188;2023-03-23T05:49:22;14.80;99.90
11599;DHT22;5855;48.840;9.188;2023-03-23T05:51:50;14.80;99.90
11599;DHT22;5855;48.840;9.188;2023-03-23T05:54:18;14.80;99.90
11599;DHT22;5855;48.840;9.188;2023-03-23T05:56:45;15.00;99.90
11599;DHT22;5855;48.840;9.188;2023-03-23T05:59:14;15.00;99.90
11599;DHT22;5855;48.840;9.188;2023-03-23T06:01:42;15.00;99.90
11599;DHT22;5855;48.840;9.188;2023-03-23T06:04:09;15.00;99.90
11599;DHT22;5855;48.840;9.188;2023-03-23T06:06:37;15.00;99.90
11599;DHT22;5855;48.840;9.188;2023-03-23T06:09:04;15.00;99.90
11599;DHT22;5855;48.840;9.188;2023-03-23T06:11:34;15.10;99.90
11599;DHT22;5855;48.840;9.188;2023-03-23T06:14:01;15.10;99.90
11599;DHT22;5855;48.840;9.188;2023-03-23T06:16:28;15.10;99.90
11599;DHT22;5855;48.840;9.188;2023-03-23T06:18:55;15.10;99.90
11599;DHT22;5855;48.840;9.188;2023-03-23T06:21:23;15.20;99.90
11599;DHT22;5855;48.840;9.188;2023-03-23T06:23:51;15.20;99.90
11599;DHT22;5855;48.840;9.188;2023-03-23T06:26:19;15.20;99.90
11599;DHT22;5855;48.840;9.188;2023-03-23T06:28:54;15.20;99.90
11599;DHT22;5855;48.840;9.188;2023-03-23T06:31:23;15.20;99.90
11599;DHT22;5855;48.840;9.188;2023-03-23T06:33:50;15.30;99.90
11599;DHT22;5855;48.840;9.188;2023-03-23T06:36:18;15.30;99.90
11599;DHT22;5855;48.840;9.188;2023-03-23T06:38:45;15.20;99.90
11599;DHT22;5855;48.840;9.188;2023-03-23T06:41:13;15.10;99.90
11599;DHT22;5855;48.840;9.188;2023-03-23T06:43:40;15.20;99.90
11599;DHT22;5855;48.840;9.188;2023-03-23T06:46:10;15.20;99.90
11599;DHT22;5855;48.840;9.188;2023-03-23T06:48:37;15.20;99.90
11599;DHT22;5855;48.840;9.188;2023-03-23T06:51:05;15.30;99.90
11599;DHT22;5855;48.840;9.188;2023-03-23T06:53:33;15.20;99.90
11599;DHT22;5855;48.840;9.188;2023-03-23T06:56:00;15.30;99.90
11599;DHT22;5855;48.840;9.188;2023-03-23T06:58:27;15.40;99.90
11599;DHT22;5855;48.840;9.188;2023-03-23T07:00:54;15.50;99.90
11599;DHT22;5855;48.840;9.188;2023-03-23T07:03:25;15.60;99.90
11599;DHT22;5855;48.840;9.188;2023-03-23T07:05:53;15.60;99.90
11599;DHT22;5855;48.840;9.188;2023-03-23T07:08:20;15.60;99.90
11599;DHT22;5855;48.840;9.188;2023-03-23T07:10:47;15.60;99.90
11599;DHT22;5855;48.840;9.188;2023-03-23T07:13:17;15.60;99.90
11599;DHT22;5855;48.840;9.188;2023-03-23T07:15:44;15.50;99.90
11599;DHT22;5855;48.840;9.188;2023-03-23T07:18:11;15.50;99.90
11599;DHT22;5855;48.840;9.188;2023-03-23T07:20:39;15.50;99.90
11599;DHT22;5855;48.840;9.188;2023-03-23T07:23:06;15.60;99.90
11599;DHT22;5855;48.840;9.188;2023-03-23T07:25:34;15.60;99.90
11599;DHT22;5855;48.840;9.188;2023-03-23T07:28:02;15.50;99.90
11599;DHT22;5855;48.840;9.188;2023-03-23T07:30:30;15.50;99.90
11599;DHT22;5855;48.840;9.188;2023-03-23T07:32:57;15.50;99.90
11599;DHT22;5855;48.840;9.188;2023-03-23T07:35:25;15.50;99.90
11599;DHT22;5855;48.840;9.188;2023-03-23T07:37:53;15.60;99.90
11599;DHT22;5855;48.840;9.188;2023-03-23T07:40:20;15.70;99.90
11599;DHT22;5855;48.840;9.188;2023-03-23T07:42:52;15.70;99.90
11599;DHT22;5855;48.840;9.188;2023-03-23T07:45:19;15.70;99.90
11599;DHT22;5855;48.840;9.188;2023-03-23T07:47:46;15.80;99.90
11599;DHT22;5855;48.840;9.188;2023-03-23T07:50:13;15.90;99.90
11599;DHT22;5855;48.840;9.188;2023-03-23T07:52:40;15.90;99.90
11599;DHT22;5855;48.840;9.188;2023-03-23T07:55:11;16.10;99.90
11599;DHT22;5855;48.840;9.188;2023-03-23T07:57:43;16.20;99.90
11599;DHT22;5855;48.840;9.188;2023-03-23T08:00:11;16.40;99.90
11599;DHT22;5855;48.840;9.188;2023-03-23T08:02:41;16.50;99.90
11599;DHT22;5855;48.840;9.188;2023-03-23T08:05:08;16.50;99.90
11599;DHT22;5855;48.840;9.188;2023-03-23T08:07:35;16.50;99.90
11599;DHT22;5855;48.840;9.188;2023-03-23T08:10:02;16.50;99.90
11599;DHT22;5855;48.840;9.188;2023-03-23T08:12:31;16.40;99.90
11599;DHT22;5855;48.840;9.188;2023-03-23T08:14:57;16.30;99.90
11599;DHT22;5855;48.840;9.188;2023-03-23T08:17:24;16.30;99.90
11599;DHT22;5855;48.840;9.188;2023-03-23T08:19:54;16.50;99.90
11599;DHT22;5855;48.840;9.188;2023-03-23T08:22:20;16.50;99.90
11599;DHT22;5855;48.840;9.188;2023-03-23T08:24:47;16.50;99.90
11599;DHT22;5855;48.840;9.188;2023-03-23T08:27:14;16.30;99.90
11599;DHT22;5855;48.840;9.188;2023-03-23T08:29:44;16.30;99.90
11599;DHT22;5855;48.840;9.188;2023-03-23T08:32:11;16.30;99.90
11599;DHT22;5855;48.840;9.188;2023-03-23T08:34:38;16.30;99.90
11599;DHT22;5855;48.840;9.188;2023-03-23T08:37:05;16.30;99.90
11599;DHT22;5855;48.840;9.188;2023-03-23T08:39:32;16.40;99.90
11599;DHT22;5855;48.840;9.188;2023-03-23T08:41:59;16.40;99.90
11599;DHT22;5855;48.840;9.188;2023-03-23T08:44:26;16.40;99.90
11599;DHT22;5855;48.840;9.188;2023-03-23T08:46:55;16.30;99.90
11599;DHT22;5855;48.840;9.188;2023-03-23T08:49:23;16.40;99.90
11599;DHT22;5855;48.840;9.188;2023-03-23T08:51:51;16.50;99.90
11599;DHT22;5855;48.840;9.188;2023-03-23T08:54:18;16.50;99.90
11599;DHT22;5855;48.840;9.188;2023-03-23T08:56:44;16.50;99.90
11599;DHT22;5855;48.840;9.188;2023-03-23T08:59:11;16.40;99.90
11599;DHT22;5855;48.840;9.188;2023-03-23T09:01:38;16.10;99.90
11599;DHT22;5855;48.840;9.188;2023-03-23T09:04:07;16.20;99.90
11599;DHT22;5855;48.840;9.188;2023-03-23T09:06:35;16.20;99.90
11599;DHT22;5855;48.840;9.188;2023-03-23T09:09:02;16.10;99.90
11599;DHT22;5855;48.840;9.188;2023-03-23T09:11:32;16.00;99.90
11599;DHT22;5855;48.840;9.188;2023-03-23T09:13:59;15.90;99.90
11599;DHT22;5855;48.840;9.188;2023-03-23T09:16:26;16.00;99.90
11599;DHT22;5855;48.840;9.188;2023-03-23T09:18:53;15.90;99.90
11599;DHT22;5855;48.840;9.188;2023-03-23T09:21:22;16.00;99.90
11599;DHT22;5855;48.840;9.188;2023-03-23T09:23:48;16.00;99.90
11599;DHT22;5855;48.840;9.188;2023-03-23T09:26:15;16.00;99.90
11599;DHT22;5855;48.840;9.188;2023-03-23T09:28:42;16.10;99.90
11599;DHT22;5855;48.840;9.188;2023-03-23T09:31:10;16.10;99.90
11599;DHT22;5855;48.840;9.188;2023-03-23T09:33:37;16.10;99.90
11599;DHT22;5855;48.840;9.188;2023-03-23T09:36:05;16.10;99.90
11599;DHT22;5855;48.840;9.188;2023-03-23T09:38:35;16.10;99.90
11599;DHT22;5855;48.840;9.188;2023-03-23T09:41:11;16.10;99.90
11599;DHT22;5855;48.840;9.188;2023-03-23T09:43:55;16.30;99.90
11599;DHT22;5855;48.840;9.188;2023-03-23T09:46:38;16.40;99.90
11599;DHT22;5855;48.840;9.188;2023-03-23T09:49:10;16.50;99.90
11599;DHT22;5855;48.840;9.188;2023-03-23T09:51:42;16.50;99.90
11599;DHT22;5855;48.840;9.188;2023-03-23T09:54:17;16.50;99.90
11599;DHT22;5855;48.840;9.188;2023-03-23T09:56:46;16.60;99.90
11599;DHT22;5855;48.840;9.188;2023-03-23T09:59:18;16.60;99.90
11599;DHT22;5855;48.840;9.188;2023-03-23T10:01:48;16.60;99.90
11599;DHT22;5855;48.840;9.188;2023-03-23T10:04:29;16.50;99.90
11599;DHT22;5855;48.840;9.188;2023-03-23T10:06:58;16.60;99.90
11599;DHT22;5855;48.840;9.188;2023-03-23T10:09:28;16.50;99.90
11599;DHT22;5855;48.840;9.188;2023-03-23T10:12:04;16.40;99.90
11599;DHT22;5855;48.840;9.188;2023-03-23T10:14:57;16.60;99.90
11599;DHT22;5855;48.840;9.188;2023-03-23T10:17:28;16.60;99.90
11599;DHT22;5855;48.840;9.188;2023-03-23T10:20:09;16.70;99.90
11599;DHT22;5855;48.840;9.188;2023-03-23T10:22:44;16.60;99.90
11599;DHT22;5855;48.840;9.188;2023-03-23T10:25:18;16.60;99.90
11599;DHT22;5855;48.840;9.188;2023-03-23T10:27:52;16.40;99.90
11599;DHT22;5855;48.840;9.188;2023-03-23T10:30:26;16.50;99.90
11599;DHT22;5855;48.840;9.188;2023-03-23T10:32:56;16.50;99.90
11599;DHT22;5855;48.840;9.188;2023-03-23T10:35:30;16.60;99.90
11599;DHT22;5855;48.840;9.188;2023-03-23T10:38:01;16.70;99.90
11599;DHT22;5855;48.840;9.188;2023-03-23T10:40:31;16.80;99.90
11599;DHT22;5855;48.840;9.188;2023-03-23T10:42:59;16.70;99.90
11599;DHT22;5855;48.840;9.188;2023-03-23T10:45:27;16.60;99.90
11599;DHT22;5855;48.840;9.188;2023-03-23T10:48:05;16.70;99.90
11599;DHT22;5855;48.840;9.188;2023-03-23T10:50:35;16.70;99.90
11599;DHT22;5855;48.840;9.188;2023-03-23T10:53:11;16.70;99.90
11599;DHT22;5855;48.840;9.188;2023-03-23T10:55:42;16.70;99.90
11599;DHT22;5855;48.840;9.188;2023-03-23T10:58:11;16.90;99.90
11599;DHT22;5855;48.840;9.188;2023-03-23T11:00:43;17.10;99.90
11599;DHT22;5855;48.840;9.188;2023-03-23T11:03:25;17.20;99.90
11599;DHT22;5855;48.840;9.188;2023-03-23T11:05:56;17.50;99.90
11599;DHT22;5855;48.840;9.188;2023-03-23T11:08:26;17.60;99.90
11599;DHT22;5855;48.840;9.188;2023-03-23T11:10:57;17.80;99.90
11599;DHT22;5855;48.840;9.188;2023-03-23T11:13:29;17.80;99.90
11599;DHT22;5855;48.840;9.188;2023-03-23T11:15:56;17.40;99.90
11599;DHT22;5855;48.840;9.188;2023-03-23T11:18:25;17.40;99.90
11599;DHT22;5855;48.840;9.188;2023-03-23T11:20:56;17.30;99.90
11599;DHT22;5855;48.840;9.188;2023-03-23T11:23:24;17.50;99.90
11599;DHT22;5855;48.840;9.188;2023-03-23T11:25:58;17.60;99.90
11599;DHT22;5855;48.840;9.188;2023-03-23T11:28:31;17.70;99.90
11599;DHT22;5855;48.840;9.188;2023-03-23T11:31:01;17.50;99.90
11599;DHT22;5855;48.840;9.188;2023-03-23T11:33:36;17.50;99.90
11599;DHT22;5855;48.840;9.188;2023-03-23T11:36:06;17.40;99.90
11599;DHT22;5855;48.840;9.188;2023-03-23T11:38:34;17.50;99.90
11599;DHT22;5855;48.840;9.188;2023-03-23T11:41:09;17.70;99.90
11599;DHT22;5855;48.840;9.188;2023-03-23T11:43:40;17.90;99.90
11599;DHT22;5855;48.840;9.188;2023-03-23T11:46:13;18.00;99.90
11599;DHT22;5855;48.840;9.188;2023-03-23T11:48:45;18.20;99.90
11599;DHT22;5855;48.840;9.188;2023-03-23T11:51:17;18.20;99.90
11599;DHT22;5855;48.840;9.188;2023-03-23T11:53:48;18.20;99.90
11599;DHT22;5855;48.840;9.188;2023-03-23T11:56:23;18.30;99.90
11599;DHT22;5855;48.840;9.188;2023-03-23T11:58:53;18.10;99.90
11599;DHT22;5855;48.840;9.188;2023-03-23T12:01:29;17.80;99.90
11599;DHT22;5855;48.840;9.188;2023-03-23T12:07:16;17.80;99.90
11599;DHT22;5855;48.840;9.188;2023-03-23T12:09:51;18.00;99.90
11599;DHT22;5855;48.840;9.188;2023-03-23T12:12:29;18.30;99.90
11599;DHT22;5855;48.840;9.188;2023-03-23T12:15:07;18.10;99.90
11599;DHT22;5855;48.840;9.188;2023-03-23T12:17:43;17.90;99.90
11599;DHT22;5855;48.840;9.188;2023-03-23T12:20:20;17.90;99.90
11599;DHT22;5855;48.840;9.188;2023-03-23T12:23:00;18.10;99.90
11599;DHT22;5855;48.840;9.188;2023-03-23T12:28:41;18.20;99.90
11599;DHT22;5855;48.840;9.188;2023-03-23T12:31:13;18.20;99.90
11599;DHT22;5855;48.840;9.188;2023-03-23T12:33:49;18.30;99.90
11599;DHT22;5855;48.840;9.188;2023-03-23T12:36:33;18.60;99.90
11599;DHT22;5855;48.840;9.188;2023-03-23T12:39:15;18.80;99.90
11599;DHT22;5855;48.840;9.188;2023-03-23T12:41:49;19.10;99.90
11599;DHT22;5855;48.840;9.188;2023-03-23T12:44:23;19.40;99.90
11599;DHT22;5855;48.840;9.188;2023-03-23T12:47:14;19.20;99.90
11599;DHT22;5855;48.840;9.188;2023-03-23T12:49:48;19.40;99.90
11599;DHT22;5855;48.840;9.188;2023-03-23T12:52:19;19.50;99.90
11599;DHT22;5855;48.840;9.188;2023-03-23T12:54:53;19.80;99.90
11599;DHT22;5855;48.840;9.188;2023-03-23T12:57:25;19.90;99.90
11599;DHT22;5855;48.840;9.188;2023-03-23T13:00:05;19.90;99.90
11599;DHT22;5855;48.840;9.188;2023-03-23T13:02:41;19.60;99.90
11599;DHT22;5855;48.840;9.188;2023-03-23T13:05:11;19.60;99.90
11599;DHT22;5855;48.840;9.188;2023-03-23T13:07:44;19.50;99.90
11599;DHT22;5855;48.840;9.188;2023-03-23T13:10:19;19.40;99.90
11599;DHT22;5855;48.840;9.188;2023-03-23T13:12:49;19.40;99.90
11599;DHT22;5855;48.840;9.188;2023-03-23T13:15:26;19.50;99.90
11599;DHT22;5855;48.840;9.188;2023-03-23T13:17:58;19.60;99.90
11599;DHT22;5855;48.840;9.188;2023-03-23T13:20:38;19.70;99.90
11599;DHT22;5855;48.840;9.188;2023-03-23T13:23:11;19.60;99.90
11599;DHT22;5855;48.840;9.188;2023-03-23T13:25:58;19.60;99.90
11599;DHT22;5855;48.840;9.188;2023-03-23T13:28:28;19.80;99.90
11599;DHT22;5855;48.840;9.188;2023-03-23T13:31:02;19.80;99.90
11599;DHT22;5855;48.840;9.188;2023-03-23T13:33:31;19.70;99.90
11599;DHT22;5855;48.840;9.188;2023-03-23T13:36:13;19.90;99.90
11599;DHT22;5855;48.840;9.188;2023-03-23T13:38:46;19.70;99.90
11599;DHT22;5855;48.840;9.188;2023-03-23T13:41:15;19.80;99.50
11599;DHT22;5855;48.840;9.188;2023-03-23T13:43:44;19.50;99.80
11599;DHT22;5855;48.840;9.188;2023-03-23T13:46:25;19.40;99.90
11599;DHT22;5855;48.840;9.188;2023-03-23T13:49:05;19.50;99.90
11599;DHT22;5855;48.840;9.188;2023-03-23T13:51:52;19.40;99.70
11599;DHT22;5855;48.840;9.188;2023-03-23T13:54:29;19.20;99.90
11599;DHT22;5855;48.840;9.188;2023-03-23T13:56:57;19.10;99.90
11599;DHT22;5855;48.840;9.188;2023-03-23T13:59:33;19.00;99.90
11599;DHT22;5855;48.840;9.188;2023-03-23T14:02:31;19.00;99.90
11599;DHT22;5855;48.840;9.188;2023-03-23T14:05:09;18.80;99.90
11599;DHT22;5855;48.840;9.188;2023-03-23T14:07:55;18.70;99.90
11599;DHT22;5855;48.840;9.188;2023-03-23T14:10:31;18.70;99.90
11599;DHT22;5855;48.840;9.188;2023-03-23T14:12:59;18.70;99.90
11599;DHT22;5855;48.840;9.188;2023-03-23T14:15:28;18.70;99.90
11599;DHT22;5855;48.840;9.188;2023-03-23T14:17:58;18.80;99.90
11599;DHT22;5855;48.840;9.188;2023-03-23T14:20:30;19.00;99.90
11599;DHT22;5855;48.840;9.188;2023-03-23T14:22:59;18.80;99.90
11599;DHT22;5855;48.840;9.188;2023-03-23T14:25:29;18.70;99.90
11599;DHT22;5855;48.840;9.188;2023-03-23T14:27:57;18.70;99.90
11599;DHT22;5855;48.840;9.188;2023-03-23T14:30:26;18.60;99.90
11599;DHT22;5855;48.840;9.188;2023-03-23T14:33:04;18.70;99.90
11599;DHT22;5855;48.840;9.188;2023-03-23T14:35:34;18.80;99.90
11599;DHT22;5855;48.840;9.188;2023-03-23T14:38:02;19.00;99.90
11599;DHT22;5855;48.840;9.188;2023-03-23T14:40:30;18.80;99.90
11599;DHT22;5855;48.840;9.188;2023-03-23T14:42:57;18.90;99.90
11599;DHT22;5855;48.840;9.188;2023-03-23T14:45:26;18.90;99.90
11599;DHT22;5855;48.840;9.188;2023-03-23T14:47:56;18.90;99.80
11599;DHT22;5855;48.840;9.188;2023-03-23T14:50:27;18.80;99.70
11599;DHT22;5855;48.840;9.188;2023-03-23T14:52:58;18.80;99.90
11599;DHT22;5855;48.840;9.188;2023-03-23T14:55:25;18.80;99.70
11599;DHT22;5855;48.840;9.188;2023-03-23T14:58:06;18.60;99.30
11599;DHT22;5855;48.840;9.188;2023-03-23T15:00:39;18.50;99.30
11599;DHT22;5855;48.840;9.188;2023-03-23T15:03:11;18.50;99.00
11599;DHT22;5855;48.840;9.188;2023-03-23T15:05:44;18.40;99.10
11599;DHT22;5855;48.840;9.188;2023-03-23T15:08:14;18.30;98.70
11599;DHT22;5855;48.840;9.188;2023-03-23T15:10:42;18.30;98.80
11599;DHT22;5855;48.840;9.188;2023-03-23T15:13:12;18.20;98.40
11599;DHT22;5855;48.840;9.188;2023-03-23T15:15:39;18.20;98.40
11599;DHT22;5855;48.840;9.188;2023-03-23T15:18:25;18.20;98.80
11599;DHT22;5855;48.840;9.188;2023-03-23T15:20:55;18.10;98.30
11599;DHT22;5855;48.840;9.188;2023-03-23T15:23:27;18.10;98.30
11599;DHT22;5855;48.840;9.188;2023-03-23T15:25:56;18.10;98.20
11599;DHT22;5855;48.840;9.188;2023-03-23T15:28:29;18.10;98.00
11599;DHT22;5855;48.840;9.188;2023-03-23T15:31:02;18.10;98.30
11599;DHT22;5855;48.840;9.188;2023-03-23T15:33:34;18.10;97.80
11599;DHT22;5855;48.840;9.188;2023-03-23T15:36:07;18.10;97.90
11599;DHT22;5855;48.840;9.188;2023-03-23T15:38:35;18.00;97.90
11599;DHT22;5855;48.840;9.188;2023-03-23T15:41:04;18.00;98.20
11599;DHT22;5855;48.840;9.188;2023-03-23T15:43:33;18.00;98.00
11599;DHT22;5855;48.840;9.188;2023-03-23T15:46:02;18.00;98.30
11599;DHT22;5855;48.840;9.188;2023-03-23T15:48:31;18.00;97.90
11599;DHT22;5855;48.840;9.188;2023-03-23T15:50:59;18.00;97.60
11599;DHT22;5855;48.840;9.188;2023-03-23T15:53:31;18.00;97.60
11599;DHT22;5855;48.840;9.188;2023-03-23T15:55:59;18.00;97.90
11599;DHT22;5855;48.840;9.188;2023-03-23T15:58:28;18.00;97.70
11599;DHT22;5855;48.840;9.188;2023-03-23T16:00:55;17.90;97.50
11599;DHT22;5855;48.840;9.188;2023-03-23T16:03:26;17.90;97.30
11599;DHT22;5855;48.840;9.188;2023-03-23T16:05:55;18.00;97.00
11599;DHT22;5855;48.840;9.188;2023-03-23T16:08:24;18.00;97.10
11599;DHT22;5855;48.840;9.188;2023-03-23T16:10:52;18.00;97.10
11599;DHT22;5855;48.840;9.188;2023-03-23T16:13:19;17.80;97.20
11599;DHT22;5855;48.840;9.188;2023-03-23T16:15:47;17.80;97.30
11599;DHT22;5855;48.840;9.188;2023-03-23T16:18:17;17.80;97.00